sensor_id;sensor_type;location;lat;lon;timestamp;P1;durP1;ratioP1;P2;durP2;ratioP2
27758;SDS011;15148;48.972;12.794;2023-07-29T00:01:46;4.72;;;3.70;;
27758;SDS011;15148;48.972;12.794;2023-07-29T00:06:48;5.60;;;3.47;;
27758;SDS011;15148;48.972;12.794;2023-07-29T00:11:50;4.78;;;3.65;;
27758;SDS011;15148;48.972;12.794;2023-07-29T00:16:51;9.20;;;3.40;;
27758;SDS011;15148;48.972;12.794;2023-07-29T00:21:53;5.03;;;3.47;;
27758;SDS011;15148;48.972;12.794;2023-07-29T00:26:55;5.95;;;3.40;;
27758;SDS011;15148;48.972;12.794;2023-07-29T00:31:57;3.88;;;3.20;;
27758;SDS011;15148;48.972;12.794;2023-07-29T00:36:59;3.90;;;3.55;;
27758;SDS011;15148;48.972;12.794;2023-07-29T00:42:01;3.63;;;3.08;;
27758;SDS011;15148;48.972;12.794;2023-07-29T00:47:03;4.30;;;3.50;;
27758;SDS011;15148;48.972;12.794;2023-07-29T00:52:07;4.22;;;3.70;;
27758;SDS011;15148;48.972;12.794;2023-07-29T00:57:09;5.43;;;3.58;;
27758;SDS011;15148;48.972;12.794;2023-07-29T01:02:12;4.80;;;3.90;;
27758;SDS011;15148;48.972;12.794;2023-07-29T01:12:47;5.60;;;3.85;;
27758;SDS011;15148;48.972;12.794;2023-07-29T01:18:08;5.60;;;3.60;;
27758;SDS011;15148;48.972;12.794;2023-07-29T01:23:22;6.05;;;3.67;;
27758;SDS011;15148;48.972;12.794;2023-07-29T01:28:26;3.72;;;3.42;;
27758;SDS011;15148;48.972;12.794;2023-07-29T01:33:31;3.83;;;3.53;;
27758;SDS011;15148;48.972;12.794;2023-07-29T01:38:40;4.68;;;3.22;;
27758;SDS011;15148;48.972;12.794;2023-07-29T01:43:44;4.10;;;3.78;;
27758;SDS011;15148;48.972;12.794;2023-07-29T01:48:47;3.70;;;3.40;;
27758;SDS011;15148;48.972;12.794;2023-07-29T01:53:49;3.78;;;3.47;;
27758;SDS011;15148;48.972;12.794;2023-07-29T01:58:51;5.68;;;3.85;;
27758;SDS011;15148;48.972;12.794;2023-07-29T02:03:53;7.30;;;3.83;;
27758;SDS011;15148;48.972;12.794;2023-07-29T02:08:58;5.78;;;4.28;;
27758;SDS011;15148;48.972;12.794;2023-07-29T02:14:00;4.90;;;4.50;;
27758;SDS011;15148;48.972;12.794;2023-07-29T02:19:03;5.20;;;4.70;;
27758;SDS011;15148;48.972;12.794;2023-07-29T02:24:04;7.07;;;6.47;;
27758;SDS011;15148;48.972;12.794;2023-07-29T02:29:06;8.85;;;8.15;;
27758;SDS011;15148;48.972;12.794;2023-07-29T02:34:08;12.93;;;10.10;;
27758;SDS011;15148;48.972;12.794;2023-07-29T02:39:10;9.80;;;8.90;;
27758;SDS011;15148;48.972;12.794;2023-07-29T02:44:12;13.20;;;12.07;;
27758;SDS011;15148;48.972;12.794;2023-07-29T02:49:14;13.55;;;12.38;;
27758;SDS011;15148;48.972;12.794;2023-07-29T02:54:16;14.63;;;12.13;;
27758;SDS011;15148;48.972;12.794;2023-07-29T02:59:18;13.52;;;12.43;;
27758;SDS011;15148;48.972;12.794;2023-07-29T03:04:20;13.20;;;11.85;;
27758;SDS011;15148;48.972;12.794;2023-07-29T03:09:22;12.75;;;11.55;;
27758;SDS011;15148;48.972;12.794;2023-07-29T03:14:24;13.35;;;12.20;;
27758;SDS011;15148;48.972;12.794;2023-07-29T03:19:26;14.23;;;12.73;;
27758;SDS011;15148;48.972;12.794;2023-07-29T03:24:28;13.43;;;12.10;;
27758;SDS011;15148;48.972;12.794;2023-07-29T03:29:30;16.88;;;14.10;;
27758;SDS011;15148;48.972;12.794;2023-07-29T03:34:32;15.18;;;13.70;;
27758;SDS011;15148;48.972;12.794;2023-07-29T03:39:34;17.70;;;16.00;;
27758;SDS011;15148;48.972;12.794;2023-07-29T03:44:36;17.73;;;15.93;;
27758;SDS011;15148;48.972;12.794;2023-07-29T03:49:40;16.77;;;15.27;;
27758;SDS011;15148;48.972;12.794;2023-07-29T03:54:43;18.23;;;16.45;;
27758;SDS011;15148;48.972;12.794;2023-07-29T03:59:44;18.58;;;16.67;;
27758;SDS011;15148;48.972;12.794;2023-07-29T04:04:46;22.98;;;18.92;;
27758;SDS011;15148;48.972;12.794;2023-07-29T04:09:49;22.17;;;19.77;;
27758;SDS011;15148;48.972;12.794;2023-07-29T04:14:52;21.05;;;18.95;;
27758;SDS011;15148;48.972;12.794;2023-07-29T04:19:54;22.05;;;19.85;;
27758;SDS011;15148;48.972;12.794;2023-07-29T04:24:59;21.65;;;19.42;;
27758;SDS011;15148;48.972;12.794;2023-07-29T04:30:01;19.92;;;17.90;;
27758;SDS011;15148;48.972;12.794;2023-07-29T04:35:03;21.92;;;19.58;;
27758;SDS011;15148;48.972;12.794;2023-07-29T04:40:06;20.38;;;18.23;;
27758;SDS011;15148;48.972;12.794;2023-07-29T04:45:08;22.08;;;19.90;;
27758;SDS011;15148;48.972;12.794;2023-07-29T04:50:10;20.48;;;18.58;;
27758;SDS011;15148;48.972;12.794;2023-07-29T04:55:12;22.15;;;19.95;;
27758;SDS011;15148;48.972;12.794;2023-07-29T05:00:14;23.05;;;20.75;;
27758;SDS011;15148;48.972;12.794;2023-07-29T05:05:17;24.58;;;22.17;;
27758;SDS011;15148;48.972;12.794;2023-07-29T05:10:19;19.50;;;17.60;;
27758;SDS011;15148;48.972;12.794;2023-07-29T05:15:21;23.27;;;20.10;;
27758;SDS011;15148;48.972;12.794;2023-07-29T05:20:23;18.48;;;16.67;;
27758;SDS011;15148;48.972;12.794;2023-07-29T05:25:25;19.85;;;17.98;;
27758;SDS011;15148;48.972;12.794;2023-07-29T05:30:28;21.13;;;18.90;;
27758;SDS011;15148;48.972;12.794;2023-07-29T05:35:32;20.35;;;18.35;;
27758;SDS011;15148;48.972;12.794;2023-07-29T05:40:34;20.67;;;18.63;;
27758;SDS011;15148;48.972;12.794;2023-07-29T05:45:36;20.20;;;18.40;;
27758;SDS011;15148;48.972;12.794;2023-07-29T05:50:38;17.65;;;15.95;;
27758;SDS011;15148;48.972;12.794;2023-07-29T05:55:41;19.10;;;17.38;;
27758;SDS011;15148;48.972;12.794;2023-07-29T06:00:43;18.80;;;17.10;;
27758;SDS011;15148;48.972;12.794;2023-07-29T06:05:45;17.15;;;15.38;;
27758;SDS011;15148;48.972;12.794;2023-07-29T06:10:47;17.17;;;15.57;;
27758;SDS011;15148;48.972;12.794;2023-07-29T06:15:49;17.50;;;15.80;;
27758;SDS011;15148;48.972;12.794;2023-07-29T06:20:51;15.02;;;13.73;;
27758;SDS011;15148;48.972;12.794;2023-07-29T06:25:53;14.07;;;12.77;;
27758;SDS011;15148;48.972;12.794;2023-07-29T06:30:55;14.10;;;12.70;;
27758;SDS011;15148;48.972;12.794;2023-07-29T06:35:57;12.85;;;11.77;;
27758;SDS011;15148;48.972;12.794;2023-07-29T06:40:59;11.52;;;10.55;;
27758;SDS011;15148;48.972;12.794;2023-07-29T06:46:00;12.77;;;11.63;;
27758;SDS011;15148;48.972;12.794;2023-07-29T06:51:02;10.95;;;10.05;;
27758;SDS011;15148;48.972;12.794;2023-07-29T06:56:04;11.13;;;10.18;;
27758;SDS011;15148;48.972;12.794;2023-07-29T07:01:07;10.18;;;9.38;;
27758;SDS011;15148;48.972;12.794;2023-07-29T07:06:09;10.70;;;9.73;;
27758;SDS011;15148;48.972;12.794;2023-07-29T07:11:11;10.90;;;9.80;;
27758;SDS011;15148;48.972;12.794;2023-07-29T07:16:13;10.45;;;9.57;;
27758;SDS011;15148;48.972;12.794;2023-07-29T07:21:15;8.50;;;7.80;;
27758;SDS011;15148;48.972;12.794;2023-07-29T07:26:17;7.68;;;7.07;;
27758;SDS011;15148;48.972;12.794;2023-07-29T07:31:19;7.45;;;6.85;;
27758;SDS011;15148;48.972;12.794;2023-07-29T07:36:21;6.13;;;5.63;;
27758;SDS011;15148;48.972;12.794;2023-07-29T07:41:23;6.07;;;5.43;;
27758;SDS011;15148;48.972;12.794;2023-07-29T07:46:25;6.00;;;5.40;;
27758;SDS011;15148;48.972;12.794;2023-07-29T07:51:27;7.05;;;6.45;;
27758;SDS011;15148;48.972;12.794;2023-07-29T07:56:29;5.45;;;5.05;;
27758;SDS011;15148;48.972;12.794;2023-07-29T08:01:34;5.28;;;4.88;;
27758;SDS011;15148;48.972;12.794;2023-07-29T08:06:37;5.82;;;4.50;;
27758;SDS011;15148;48.972;12.794;2023-07-29T08:11:40;4.53;;;3.70;;
27758;SDS011;15148;48.972;12.794;2023-07-29T08:16:41;4.07;;;3.67;;
27758;SDS011;15148;48.972;12.794;2023-07-29T08:21:43;3.30;;;3.10;;
27758;SDS011;15148;48.972;12.794;2023-07-29T08:26:45;4.53;;;3.33;;
27758;SDS011;15148;48.972;12.794;2023-07-29T08:31:47;3.70;;;2.80;;
27758;SDS011;15148;48.972;12.794;2023-07-29T08:36:49;4.05;;;3.60;;
27758;SDS011;15148;48.972;12.794;2023-07-29T08:47:02;4.45;;;4.05;;
27758;SDS011;15148;48.972;12.794;2023-07-29T08:52:04;5.40;;;3.20;;
27758;SDS011;15148;48.972;12.794;2023-07-29T08:57:08;4.68;;;3.15;;
27758;SDS011;15148;48.972;12.794;2023-07-29T09:02:10;5.43;;;3.85;;
27758;SDS011;15148;48.972;12.794;2023-07-29T09:07:12;3.95;;;3.58;;
27758;SDS011;15148;48.972;12.794;2023-07-29T09:12:14;11.82;;;5.18;;
27758;SDS011;15148;48.972;12.794;2023-07-29T09:17:16;6.97;;;6.10;;
27758;SDS011;15148;48.972;12.794;2023-07-29T09:22:19;8.57;;;7.70;;
27758;SDS011;15148;48.972;12.794;2023-07-29T09:27:25;6.20;;;4.93;;
27758;SDS011;15148;48.972;12.794;2023-07-29T09:32:28;5.70;;;5.03;;
27758;SDS011;15148;48.972;12.794;2023-07-29T09:37:30;5.60;;;5.05;;
27758;SDS011;15148;48.972;12.794;2023-07-29T09:42:33;5.57;;;4.80;;
27758;SDS011;15148;48.972;12.794;2023-07-29T09:47:35;8.55;;;4.43;;
27758;SDS011;15148;48.972;12.794;2023-07-29T09:52:37;3.40;;;3.10;;
27758;SDS011;15148;48.972;12.794;2023-07-29T09:57:39;4.03;;;3.30;;
27758;SDS011;15148;48.972;12.794;2023-07-29T10:02:43;2.83;;;2.60;;
27758;SDS011;15148;48.972;12.794;2023-07-29T10:07:45;3.10;;;2.80;;
27758;SDS011;15148;48.972;12.794;2023-07-29T10:12:48;3.50;;;2.80;;
27758;SDS011;15148;48.972;12.794;2023-07-29T10:17:52;3.38;;;3.08;;
27758;SDS011;15148;48.972;12.794;2023-07-29T10:22:54;3.97;;;3.42;;
27758;SDS011;15148;48.972;12.794;2023-07-29T10:28:06;5.75;;;3.35;;
27758;SDS011;15148;48.972;12.794;2023-07-29T10:33:09;3.40;;;3.10;;
27758;SDS011;15148;48.972;12.794;2023-07-29T10:38:12;2.72;;;2.50;;
27758;SDS011;15148;48.972;12.794;2023-07-29T10:43:18;26.80;;;15.80;;
27758;SDS011;15148;48.972;12.794;2023-07-29T10:53:37;4.25;;;2.40;;
27758;SDS011;15148;48.972;12.794;2023-07-29T10:58:39;10.45;;;4.00;;
27758;SDS011;15148;48.972;12.794;2023-07-29T11:04:00;3.97;;;3.05;;
27758;SDS011;15148;48.972;12.794;2023-07-29T11:14:52;5.18;;;2.60;;
27758;SDS011;15148;48.972;12.794;2023-07-29T11:19:54;3.65;;;2.72;;
27758;SDS011;15148;48.972;12.794;2023-07-29T11:24:59;3.78;;;2.35;;
27758;SDS011;15148;48.972;12.794;2023-07-29T11:30:02;3.45;;;2.83;;
27758;SDS011;15148;48.972;12.794;2023-07-29T11:40:19;2.17;;;2.08;;
27758;SDS011;15148;48.972;12.794;2023-07-29T11:45:22;2.28;;;2.03;;
27758;SDS011;15148;48.972;12.794;2023-07-29T11:50:39;2.40;;;2.20;;
27758;SDS011;15148;48.972;12.794;2023-07-29T11:55:41;2.58;;;2.38;;
27758;SDS011;15148;48.972;12.794;2023-07-29T12:00:43;2.75;;;2.45;;
27758;SDS011;15148;48.972;12.794;2023-07-29T12:05:45;2.35;;;2.15;;
27758;SDS011;15148;48.972;12.794;2023-07-29T12:10:47;3.33;;;2.40;;
27758;SDS011;15148;48.972;12.794;2023-07-29T12:15:49;3.15;;;2.53;;
27758;SDS011;15148;48.972;12.794;2023-07-29T12:20:55;2.67;;;2.47;;
27758;SDS011;15148;48.972;12.794;2023-07-29T12:25:57;3.00;;;2.70;;
27758;SDS011;15148;48.972;12.794;2023-07-29T12:31:00;4.53;;;3.35;;
27758;SDS011;15148;48.972;12.794;2023-07-29T12:36:02;3.92;;;3.28;;
27758;SDS011;15148;48.972;12.794;2023-07-29T12:41:04;2.80;;;2.60;;
27758;SDS011;15148;48.972;12.794;2023-07-29T12:46:07;6.13;;;3.45;;
27758;SDS011;15148;48.972;12.794;2023-07-29T12:51:09;4.18;;;3.75;;
27758;SDS011;15148;48.972;12.794;2023-07-29T12:56:11;4.57;;;3.35;;
27758;SDS011;15148;48.972;12.794;2023-07-29T13:01:13;2.97;;;2.78;;
27758;SDS011;15148;48.972;12.794;2023-07-29T13:06:19;4.03;;;3.70;;
27758;SDS011;15148;48.972;12.794;2023-07-29T13:11:21;5.97;;;3.83;;
27758;SDS011;15148;48.972;12.794;2023-07-29T13:16:23;7.00;;;6.40;;
27758;SDS011;15148;48.972;12.794;2023-07-29T13:21:26;3.10;;;2.83;;
27758;SDS011;15148;48.972;12.794;2023-07-29T13:26:28;3.15;;;2.65;;
27758;SDS011;15148;48.972;12.794;2023-07-29T13:31:30;7.32;;;4.30;;
27758;SDS011;15148;48.972;12.794;2023-07-29T13:36:33;3.03;;;2.80;;
27758;SDS011;15148;48.972;12.794;2023-07-29T13:41:35;3.70;;;3.22;;
27758;SDS011;15148;48.972;12.794;2023-07-29T13:46:37;4.53;;;2.88;;
27758;SDS011;15148;48.972;12.794;2023-07-29T13:51:40;4.60;;;3.67;;
27758;SDS011;15148;48.972;12.794;2023-07-29T13:56:44;3.45;;;3.15;;
27758;SDS011;15148;48.972;12.794;2023-07-29T14:01:45;3.28;;;2.95;;
27758;SDS011;15148;48.972;12.794;2023-07-29T14:06:47;4.03;;;2.90;;
27758;SDS011;15148;48.972;12.794;2023-07-29T14:11:58;2.90;;;2.45;;
27758;SDS011;15148;48.972;12.794;2023-07-29T14:17:00;4.65;;;2.72;;
27758;SDS011;15148;48.972;12.794;2023-07-29T14:22:02;2.70;;;2.50;;
27758;SDS011;15148;48.972;12.794;2023-07-29T14:27:04;3.20;;;2.60;;
27758;SDS011;15148;48.972;12.794;2023-07-29T14:32:06;5.45;;;3.53;;
27758;SDS011;15148;48.972;12.794;2023-07-29T14:37:08;2.92;;;2.70;;
27758;SDS011;15148;48.972;12.794;2023-07-29T14:42:10;3.35;;;2.33;;
27758;SDS011;15148;48.972;12.794;2023-07-29T14:47:11;5.45;;;2.60;;
27758;SDS011;15148;48.972;12.794;2023-07-29T14:52:13;2.97;;;2.20;;
27758;SDS011;15148;48.972;12.794;2023-07-29T14:57:16;4.30;;;2.30;;
27758;SDS011;15148;48.972;12.794;2023-07-29T15:02:18;2.35;;;2.15;;
27758;SDS011;15148;48.972;12.794;2023-07-29T15:07:20;2.92;;;2.40;;
27758;SDS011;15148;48.972;12.794;2023-07-29T15:12:22;3.60;;;2.70;;
27758;SDS011;15148;48.972;12.794;2023-07-29T15:17:25;3.05;;;2.53;;
27758;SDS011;15148;48.972;12.794;2023-07-29T15:22:27;2.45;;;2.25;;
27758;SDS011;15148;48.972;12.794;2023-07-29T15:27:30;2.10;;;1.95;;
27758;SDS011;15148;48.972;12.794;2023-07-29T15:32:31;3.03;;;2.70;;
27758;SDS011;15148;48.972;12.794;2023-07-29T15:37:34;2.20;;;2.00;;
27758;SDS011;15148;48.972;12.794;2023-07-29T15:42:35;2.45;;;2.25;;
27758;SDS011;15148;48.972;12.794;2023-07-29T15:47:37;7.63;;;2.83;;
27758;SDS011;15148;48.972;12.794;2023-07-29T15:52:39;2.80;;;2.17;;
27758;SDS011;15148;48.972;12.794;2023-07-29T15:57:43;5.60;;;2.58;;
27758;SDS011;15148;48.972;12.794;2023-07-29T16:02:45;4.05;;;2.42;;
27758;SDS011;15148;48.972;12.794;2023-07-29T16:07:47;2.97;;;2.40;;
27758;SDS011;15148;48.972;12.794;2023-07-29T16:12:50;3.60;;;2.00;;
27758;SDS011;15148;48.972;12.794;2023-07-29T16:17:52;3.17;;;2.25;;
27758;SDS011;15148;48.972;12.794;2023-07-29T16:22:55;2.42;;;2.22;;
27758;SDS011;15148;48.972;12.794;2023-07-29T16:27:57;2.60;;;2.40;;
27758;SDS011;15148;48.972;12.794;2023-07-29T16:32:59;2.50;;;2.22;;
27758;SDS011;15148;48.972;12.794;2023-07-29T16:38:01;2.25;;;2.05;;
27758;SDS011;15148;48.972;12.794;2023-07-29T16:43:04;2.30;;;2.10;;
27758;SDS011;15148;48.972;12.794;2023-07-29T16:48:06;4.85;;;2.35;;
27758;SDS011;15148;48.972;12.794;2023-07-29T16:53:07;6.40;;;2.50;;
27758;SDS011;15148;48.972;12.794;2023-07-29T16:58:09;5.03;;;2.50;;
27758;SDS011;15148;48.972;12.794;2023-07-29T17:03:11;2.67;;;2.35;;
27758;SDS011;15148;48.972;12.794;2023-07-29T17:08:13;5.65;;;2.00;;
27758;SDS011;15148;48.972;12.794;2023-07-29T17:13:15;2.85;;;1.98;;
27758;SDS011;15148;48.972;12.794;2023-07-29T17:18:17;4.13;;;2.30;;
27758;SDS011;15148;48.972;12.794;2023-07-29T17:23:19;3.17;;;2.83;;
27758;SDS011;15148;48.972;12.794;2023-07-29T17:28:21;2.78;;;2.30;;
27758;SDS011;15148;48.972;12.794;2023-07-29T17:33:23;5.10;;;2.13;;
27758;SDS011;15148;48.972;12.794;2023-07-29T17:38:26;5.82;;;2.13;;
27758;SDS011;15148;48.972;12.794;2023-07-29T17:43:28;5.78;;;2.50;;
27758;SDS011;15148;48.972;12.794;2023-07-29T17:48:30;7.43;;;2.30;;
27758;SDS011;15148;48.972;12.794;2023-07-29T17:53:32;3.38;;;2.60;;
27758;SDS011;15148;48.972;12.794;2023-07-29T17:58:37;3.85;;;3.55;;
27758;SDS011;15148;48.972;12.794;2023-07-29T18:03:39;3.60;;;2.63;;
27758;SDS011;15148;48.972;12.794;2023-07-29T18:08:41;3.63;;;2.55;;
27758;SDS011;15148;48.972;12.794;2023-07-29T18:13:43;2.60;;;2.40;;
27758;SDS011;15148;48.972;12.794;2023-07-29T18:18:46;2.80;;;2.45;;
27758;SDS011;15148;48.972;12.794;2023-07-29T18:23:51;2.53;;;2.30;;
27758;SDS011;15148;48.972;12.794;2023-07-29T18:28:52;2.63;;;2.17;;
27758;SDS011;15148;48.972;12.794;2023-07-29T18:33:55;3.20;;;2.30;;
27758;SDS011;15148;48.972;12.794;2023-07-29T18:38:57;5.95;;;2.38;;
27758;SDS011;15148;48.972;12.794;2023-07-29T18:44:02;5.95;;;3.00;;
27758;SDS011;15148;48.972;12.794;2023-07-29T18:49:04;5.18;;;4.00;;
27758;SDS011;15148;48.972;12.794;2023-07-29T18:54:07;6.25;;;3.55;;
27758;SDS011;15148;48.972;12.794;2023-07-29T18:59:09;4.47;;;2.67;;
27758;SDS011;15148;48.972;12.794;2023-07-29T19:04:11;3.45;;;2.70;;
27758;SDS011;15148;48.972;12.794;2023-07-29T19:09:14;4.20;;;2.65;;
27758;SDS011;15148;48.972;12.794;2023-07-29T19:14:17;6.15;;;2.60;;
27758;SDS011;15148;48.972;12.794;2023-07-29T19:19:18;4.70;;;3.00;;
27758;SDS011;15148;48.972;12.794;2023-07-29T19:24:20;4.10;;;2.90;;
27758;SDS011;15148;48.972;12.794;2023-07-29T19:29:22;3.60;;;2.10;;
27758;SDS011;15148;48.972;12.794;2023-07-29T19:34:24;3.83;;;3.30;;
27758;SDS011;15148;48.972;12.794;2023-07-29T19:39:26;7.65;;;2.95;;
27758;SDS011;15148;48.972;12.794;2023-07-29T19:44:28;4.65;;;2.60;;
27758;SDS011;15148;48.972;12.794;2023-07-29T19:49:31;7.68;;;2.65;;
27758;SDS011;15148;48.972;12.794;2023-07-29T19:54:33;6.03;;;2.72;;
27758;SDS011;15148;48.972;12.794;2023-07-29T19:59:35;4.85;;;3.47;;
27758;SDS011;15148;48.972;12.794;2023-07-29T20:04:49;4.75;;;2.53;;
27758;SDS011;15148;48.972;12.794;2023-07-29T20:09:57;5.90;;;3.22;;
27758;SDS011;15148;48.972;12.794;2023-07-29T20:14:59;6.60;;;2.47;;
27758;SDS011;15148;48.972;12.794;2023-07-29T20:20:02;3.00;;;2.30;;
27758;SDS011;15148;48.972;12.794;2023-07-29T20:25:04;2.53;;;2.33;;
27758;SDS011;15148;48.972;12.794;2023-07-29T20:30:06;4.00;;;2.47;;
27758;SDS011;15148;48.972;12.794;2023-07-29T20:35:09;5.90;;;2.90;;
27758;SDS011;15148;48.972;12.794;2023-07-29T20:40:11;4.85;;;3.00;;
27758;SDS011;15148;48.972;12.794;2023-07-29T20:45:13;7.57;;;4.90;;
27758;SDS011;15148;48.972;12.794;2023-07-29T20:50:15;4.30;;;3.00;;
27758;SDS011;15148;48.972;12.794;2023-07-29T20:55:17;3.60;;;2.70;;
27758;SDS011;15148;48.972;12.794;2023-07-29T21:00:19;4.30;;;2.75;;
27758;SDS011;15148;48.972;12.794;2023-07-29T21:05:21;3.15;;;2.90;;
27758;SDS011;15148;48.972;12.794;2023-07-29T21:10:23;4.47;;;2.78;;
27758;SDS011;15148;48.972;12.794;2023-07-29T21:15:25;10.10;;;3.00;;
27758;SDS011;15148;48.972;12.794;2023-07-29T21:20:27;3.63;;;2.60;;
27758;SDS011;15148;48.972;12.794;2023-07-29T21:25:29;4.63;;;2.90;;
27758;SDS011;15148;48.972;12.794;2023-07-29T21:30:31;4.32;;;2.95;;
27758;SDS011;15148;48.972;12.794;2023-07-29T21:35:33;4.78;;;2.90;;
27758;SDS011;15148;48.972;12.794;2023-07-29T21:40:35;2.58;;;2.35;;
27758;SDS011;15148;48.972;12.794;2023-07-29T21:45:37;3.80;;;2.85;;
27758;SDS011;15148;48.972;12.794;2023-07-29T21:50:42;4.97;;;2.90;;
27758;SDS011;15148;48.972;12.794;2023-07-29T21:55:44;2.92;;;2.72;;
27758;SDS011;15148;48.972;12.794;2023-07-29T22:00:50;6.53;;;3.00;;
27758;SDS011;15148;48.972;12.794;2023-07-29T22:06:01;3.22;;;2.97;;
27758;SDS011;15148;48.972;12.794;2023-07-29T22:11:04;5.57;;;3.10;;
27758;SDS011;15148;48.972;12.794;2023-07-29T22:16:06;2.92;;;2.72;;
27758;SDS011;15148;48.972;12.794;2023-07-29T22:21:08;6.32;;;3.03;;
27758;SDS011;15148;48.972;12.794;2023-07-29T22:26:10;5.43;;;3.17;;
27758;SDS011;15148;48.972;12.794;2023-07-29T22:31:12;3.88;;;3.28;;
27758;SDS011;15148;48.972;12.794;2023-07-29T22:36:14;2.88;;;2.67;;
27758;SDS011;15148;48.972;12.794;2023-07-29T22:41:16;3.90;;;3.42;;
27758;SDS011;15148;48.972;12.794;2023-07-29T22:46:18;7.28;;;3.38;;
27758;SDS011;15148;48.972;12.794;2023-07-29T22:51:20;4.30;;;3.08;;
27758;SDS011;15148;48.972;12.794;2023-07-29T22:56:22;4.85;;;3.40;;
27758;SDS011;15148;48.972;12.794;2023-07-29T23:01:24;6.57;;;3.38;;
27758;SDS011;15148;48.972;12.794;2023-07-29T23:06:27;5.22;;;3.30;;
27758;SDS011;15148;48.972;12.794;2023-07-29T23:11:28;6.53;;;3.33;;
27758;SDS011;15148;48.972;12.794;2023-07-29T23:16:30;3.70;;;3.20;;
27758;SDS011;15148;48.972;12.794;2023-07-29T23:21:32;6.25;;;3.65;;
27758;SDS011;15148;48.972;12.794;2023-07-29T23:26:34;4.10;;;3.80;;
27758;SDS011;15148;48.972;12.794;2023-07-29T23:31:36;5.07;;;3.60;;
27758;SDS011;15148;48.972;12.794;2023-07-29T23:36:38;3.60;;;3.22;;
27758;SDS011;15148;48.972;12.794;2023-07-29T23:41:40;7.38;;;4.32;;
27758;SDS011;15148;48.972;12.794;2023-07-29T23:46:42;5.15;;;3.35;;
27758;SDS011;15148;48.972;12.794;2023-07-29T23:51:44;3.50;;;3.20;;
27758;SDS011;15148;48.972;12.794;2023-07-29T23:56:45;3.78;;;3.45;;
